createdAt,value
2017-06-09T00:00:24.488Z,0
2017-06-09T00:00:56.808Z,0
2017-06-09T00:01:29.086Z,0
2017-06-09T00:02:01.331Z,0
2017-06-09T00:02:33.589Z,0
2017-06-09T00:03:05.850Z,0
2017-06-09T00:03:39.002Z,0
2017-06-09T00:04:11.257Z,0
2017-06-09T00:04:44.970Z,0
2017-06-09T00:05:17.228Z,0
2017-06-09T00:05:49.467Z,0
2017-06-09T00:06:22.613Z,0
2017-06-09T00:06:54.874Z,0
2017-06-09T00:07:27.106Z,0
2017-06-09T00:07:59.354Z,0
2017-06-09T00:08:31.648Z,0
2017-06-09T00:09:03.891Z,0
2017-06-09T00:09:37.084Z,0
2017-06-09T00:10:09.338Z,0
2017-06-09T00:10:41.590Z,0
2017-06-09T00:11:13.823Z,0
2017-06-09T00:11:46.081Z,0
2017-06-09T00:12:18.353Z,0
2017-06-09T00:12:50.636Z,0
2017-06-09T00:13:22.934Z,0
2017-06-09T00:13:55.222Z,0
2017-06-09T00:14:27.512Z,0
2017-06-09T00:14:59.788Z,0
2017-06-09T00:15:32.083Z,0
2017-06-09T00:16:04.418Z,0
2017-06-09T00:16:36.691Z,0
2017-06-09T00:17:08.972Z,0
2017-06-09T00:17:41.278Z,0
2017-06-09T00:18:13.574Z,0
2017-06-09T00:18:45.854Z,0
2017-06-09T00:19:18.142Z,0
2017-06-09T00:19:50.433Z,0
2017-06-09T00:20:22.732Z,0
2017-06-09T00:20:55.023Z,0
2017-06-09T00:21:27.299Z,0
2017-06-09T00:21:59.610Z,0
2017-06-09T00:22:31.910Z,0
2017-06-09T00:23:04.179Z,0
2017-06-09T00:23:36.474Z,0
2017-06-09T00:24:08.766Z,0
2017-06-09T00:24:41.087Z,0
2017-06-09T00:25:13.370Z,0
2017-06-09T00:25:45.657Z,0
2017-06-09T00:26:17.930Z,0
2017-06-09T00:26:50.242Z,0
2017-06-09T00:27:22.535Z,0
2017-06-09T00:27:54.836Z,0
2017-06-09T00:28:27.127Z,0
2017-06-09T00:28:59.445Z,0
2017-06-09T00:29:31.726Z,0
2017-06-09T00:30:04.005Z,0
2017-06-09T00:30:36.274Z,0
2017-06-09T00:31:08.578Z,0
2017-06-09T00:31:40.890Z,0
2017-06-09T00:32:13.197Z,0
2017-06-09T00:32:45.479Z,0
2017-06-09T00:33:17.792Z,0
2017-06-09T00:33:50.105Z,0
2017-06-09T00:34:22.399Z,0
2017-06-09T00:34:54.685Z,0
2017-06-09T00:35:26.961Z,0
2017-06-09T00:35:59.262Z,0
2017-06-09T00:36:31.569Z,0
2017-06-09T00:37:03.858Z,0
2017-06-09T00:37:36.139Z,0
2017-06-09T00:38:08.406Z,0
2017-06-09T00:38:40.716Z,0
2017-06-09T00:39:13.003Z,0
2017-06-09T00:39:45.286Z,0
2017-06-09T00:40:17.590Z,0
2017-06-09T00:40:49.885Z,0
2017-06-09T00:41:22.171Z,0
2017-06-09T00:41:54.519Z,0
2017-06-09T00:42:26.789Z,0
2017-06-09T00:42:59.078Z,0
2017-06-09T00:43:31.352Z,0
2017-06-09T00:44:03.659Z,0
2017-06-09T00:44:35.982Z,0
2017-06-09T00:45:08.285Z,0
2017-06-09T00:45:40.571Z,0
2017-06-09T00:46:12.871Z,0
2017-06-09T00:46:45.163Z,0
2017-06-09T00:47:17.516Z,0
2017-06-09T00:47:49.806Z,0
2017-06-09T00:48:22.102Z,0
2017-06-09T00:48:54.390Z,0
2017-06-09T00:49:26.682Z,0
2017-06-09T00:49:58.946Z,0
2017-06-09T00:50:31.248Z,0
2017-06-09T00:51:03.533Z,0
2017-06-09T00:51:35.837Z,0
2017-06-09T00:52:08.132Z,0
2017-06-09T00:52:40.430Z,0
2017-06-09T00:53:12.710Z,0
2017-06-09T00:53:44.975Z,0
2017-06-09T00:54:17.285Z,0
2017-06-09T00:54:49.601Z,0
2017-06-09T00:55:21.884Z,0
2017-06-09T00:55:54.192Z,0
2017-06-09T00:56:26.467Z,0
2017-06-09T00:56:58.757Z,0
2017-06-09T00:57:31.042Z,0
2017-06-09T00:58:03.323Z,0
2017-06-09T00:58:35.625Z,0
2017-06-09T00:59:07.942Z,0
2017-06-09T00:59:40.242Z,0
2017-06-09T01:00:12.517Z,0
2017-06-09T01:00:44.810Z,0
2017-06-09T01:01:17.081Z,0
2017-06-09T01:01:49.372Z,0
2017-06-09T01:02:21.662Z,0
2017-06-09T01:02:53.935Z,0
2017-06-09T01:03:26.235Z,0
2017-06-09T01:03:58.514Z,0
2017-06-09T01:04:30.792Z,0
2017-06-09T01:05:03.089Z,0
2017-06-09T01:05:35.370Z,0
2017-06-09T01:06:07.645Z,0
2017-06-09T01:06:39.944Z,0
2017-06-09T01:07:12.219Z,0
2017-06-09T01:07:44.517Z,0
2017-06-09T01:08:16.802Z,0
2017-06-09T01:08:49.125Z,0
2017-06-09T01:09:21.409Z,0
2017-06-09T01:09:53.686Z,0
2017-06-09T01:10:25.972Z,0
2017-06-09T01:10:58.255Z,0
2017-06-09T01:11:30.555Z,0
2017-06-09T01:12:02.837Z,0
2017-06-09T01:12:35.124Z,0
2017-06-09T01:13:07.402Z,0
2017-06-09T01:13:39.688Z,0
2017-06-09T01:14:11.970Z,0
2017-06-09T01:14:44.249Z,0
2017-06-09T01:15:16.569Z,0
2017-06-09T01:15:48.862Z,0
2017-06-09T01:16:21.135Z,0
2017-06-09T01:16:53.423Z,0
2017-06-09T01:17:25.733Z,0
2017-06-09T01:17:58.008Z,0
2017-06-09T01:18:30.294Z,0
2017-06-09T01:19:02.575Z,0
2017-06-09T01:19:34.861Z,0
2017-06-09T01:20:07.152Z,0
2017-06-09T01:20:39.439Z,0
2017-06-09T01:21:11.735Z,0
2017-06-09T01:21:44.023Z,0
2017-06-09T01:22:16.307Z,0
2017-06-09T01:22:48.581Z,0
2017-06-09T01:23:20.847Z,0
2017-06-09T01:23:53.096Z,0
2017-06-09T01:24:25.363Z,0
2017-06-09T01:24:58.123Z,0
2017-06-09T01:25:30.364Z,0
2017-06-09T01:26:02.610Z,0
2017-06-09T01:26:34.864Z,0
2017-06-09T01:27:07.112Z,0
2017-06-09T01:27:40.075Z,0
2017-06-09T01:28:12.319Z,0
2017-06-09T01:28:44.580Z,0
2017-06-09T01:29:16.844Z,0
2017-06-09T01:29:49.082Z,0
2017-06-09T01:30:21.325Z,0
2017-06-09T01:30:54.133Z,0
2017-06-09T01:31:26.395Z,0
2017-06-09T01:31:58.622Z,0
2017-06-09T01:32:30.902Z,0
2017-06-09T01:33:03.229Z,0
2017-06-09T01:33:35.522Z,0
2017-06-09T01:34:07.809Z,0
2017-06-09T01:34:40.123Z,0
2017-06-09T01:35:12.425Z,0
2017-06-09T01:35:44.724Z,0
2017-06-09T01:36:17.001Z,0
2017-06-09T01:36:49.284Z,0
2017-06-09T01:37:21.610Z,0
2017-06-09T01:37:53.906Z,0
2017-06-09T01:38:26.186Z,0
2017-06-09T01:38:58.495Z,0
2017-06-09T01:39:30.805Z,0
2017-06-09T01:40:03.097Z,0
2017-06-09T01:40:35.388Z,0
2017-06-09T01:41:07.691Z,0
2017-06-09T01:41:39.990Z,0
2017-06-09T01:42:12.273Z,0
2017-06-09T01:42:44.551Z,0
2017-06-09T01:43:16.799Z,0
2017-06-09T01:43:49.059Z,0
2017-06-09T01:44:21.327Z,0
2017-06-09T01:44:53.601Z,0
2017-06-09T01:45:25.853Z,0
2017-06-09T01:45:58.080Z,0
2017-06-09T01:46:31.038Z,0
2017-06-09T01:47:03.305Z,0
2017-06-09T01:47:35.566Z,0
2017-06-09T01:48:07.819Z,0
2017-06-09T01:48:40.088Z,0
2017-06-09T01:49:12.388Z,0
2017-06-09T01:49:44.638Z,0
2017-06-09T01:50:16.902Z,0
2017-06-09T01:50:49.158Z,0
2017-06-09T01:51:22.169Z,0
2017-06-09T01:51:54.443Z,0
2017-06-09T01:52:26.709Z,0
2017-06-09T01:52:58.978Z,0
2017-06-09T01:53:31.232Z,0
2017-06-09T01:54:03.495Z,0
2017-06-09T01:54:35.763Z,0
2017-06-09T01:55:07.998Z,0
2017-06-09T01:55:40.259Z,0
2017-06-09T01:56:12.523Z,0
2017-06-09T01:56:44.844Z,0
2017-06-09T01:57:17.099Z,0
2017-06-09T01:57:49.351Z,0
2017-06-09T01:58:21.599Z,0
2017-06-09T01:58:53.845Z,0
2017-06-09T01:59:26.099Z,0
2017-06-09T01:59:59.044Z,0
2017-06-09T02:00:31.316Z,0
2017-06-09T02:01:03.543Z,0
2017-06-09T02:01:35.790Z,0
2017-06-09T02:02:08.066Z,0
2017-06-09T02:02:40.363Z,0
2017-06-09T02:03:12.642Z,0
2017-06-09T02:03:44.925Z,0
2017-06-09T02:04:17.233Z,0
2017-06-09T02:04:49.524Z,0
2017-06-09T02:05:21.795Z,0
2017-06-09T02:05:54.084Z,0
2017-06-09T02:06:26.362Z,0
2017-06-09T02:06:58.704Z,0
2017-06-09T02:07:30.990Z,0
2017-06-09T02:08:03.282Z,0
2017-06-09T02:08:35.560Z,0
2017-06-09T02:09:07.844Z,0
2017-06-09T02:09:40.142Z,0
2017-06-09T02:10:12.420Z,0
2017-06-09T02:10:44.725Z,0
2017-06-09T02:11:17.022Z,0
2017-06-09T02:11:49.294Z,0
2017-06-09T02:12:21.579Z,0
2017-06-09T02:12:53.859Z,0
2017-06-09T02:13:26.108Z,0
2017-06-09T02:13:58.347Z,0
2017-06-09T02:14:30.611Z,0
2017-06-09T02:15:02.877Z,0
2017-06-09T02:15:36.009Z,0
2017-06-09T02:16:08.395Z,0
2017-06-09T02:16:40.671Z,0
2017-06-09T02:17:12.941Z,0
2017-06-09T02:17:45.197Z,0
2017-06-09T02:18:17.452Z,0
2017-06-09T02:18:49.719Z,0
2017-06-09T02:19:22.655Z,0
2017-06-09T02:19:54.910Z,0
2017-06-09T02:20:27.206Z,0
2017-06-09T02:20:59.496Z,0
2017-06-09T02:21:31.761Z,0
2017-06-09T02:22:03.992Z,0
2017-06-09T02:22:36.245Z,0
2017-06-09T02:23:08.502Z,0
2017-06-09T02:23:40.759Z,0
2017-06-09T02:24:13.022Z,0
2017-06-09T02:24:45.282Z,0
2017-06-09T02:25:17.550Z,0
2017-06-09T02:25:49.801Z,0
2017-06-09T02:26:22.041Z,0
2017-06-09T02:26:54.301Z,0
2017-06-09T02:27:26.555Z,0
2017-06-09T02:27:58.790Z,0
2017-06-09T02:28:31.051Z,0
2017-06-09T02:29:03.311Z,0
2017-06-09T02:29:35.575Z,0
2017-06-09T02:30:07.832Z,0
2017-06-09T02:30:40.091Z,0
2017-06-09T02:31:12.356Z,0
2017-06-09T02:31:45.105Z,0
2017-06-09T02:32:17.359Z,0
2017-06-09T02:32:49.628Z,0
2017-06-09T02:33:21.879Z,0
2017-06-09T02:33:54.184Z,0
2017-06-09T02:34:26.447Z,0
2017-06-09T02:34:58.824Z,0
2017-06-09T02:35:31.081Z,0
2017-06-09T02:36:03.341Z,0
2017-06-09T02:36:35.596Z,0
2017-06-09T02:37:07.860Z,0
2017-06-09T02:37:40.664Z,0
2017-06-09T02:38:12.905Z,0
2017-06-09T02:38:45.161Z,0
2017-06-09T02:39:17.429Z,0
2017-06-09T02:39:49.674Z,0
2017-06-09T02:40:21.931Z,0
2017-06-09T02:40:54.206Z,0
2017-06-09T02:41:26.458Z,0
2017-06-09T02:41:58.710Z,0
2017-06-09T02:42:31.657Z,0
2017-06-09T02:43:04.655Z,0
2017-06-09T02:43:36.939Z,0
2017-06-09T02:44:09.254Z,0
2017-06-09T02:44:41.523Z,0
2017-06-09T02:45:13.793Z,0
2017-06-09T02:45:46.666Z,0
2017-06-09T02:46:18.990Z,0
2017-06-09T02:46:51.244Z,0
2017-06-09T02:47:23.505Z,0
2017-06-09T02:47:55.767Z,0
2017-06-09T02:48:28.011Z,0
2017-06-09T02:49:00.282Z,0
2017-06-09T02:49:33.109Z,0
2017-06-09T02:50:05.391Z,0
2017-06-09T02:50:37.652Z,0
2017-06-09T02:51:09.913Z,0
2017-06-09T02:51:42.186Z,0
2017-06-09T02:52:14.565Z,0
2017-06-09T02:52:46.844Z,0
2017-06-09T02:53:19.134Z,0
2017-06-09T02:53:51.415Z,0
2017-06-09T02:54:23.741Z,0
2017-06-09T02:54:56.027Z,0
2017-06-09T02:55:28.350Z,0
2017-06-09T02:56:00.646Z,0
2017-06-09T02:56:32.961Z,0
2017-06-09T02:57:05.269Z,0
2017-06-09T02:57:37.561Z,0
2017-06-09T02:58:09.857Z,0
2017-06-09T02:58:42.160Z,0
2017-06-09T02:59:14.457Z,0
2017-06-09T02:59:46.741Z,0
2017-06-09T03:00:19.026Z,0
2017-06-09T03:00:51.310Z,0
2017-06-09T03:01:23.591Z,0
2017-06-09T03:01:55.870Z,0
2017-06-09T03:02:28.155Z,0
2017-06-09T03:03:00.470Z,0
2017-06-09T03:03:32.732Z,0
2017-06-09T03:04:05.567Z,0
2017-06-09T03:04:37.824Z,0
2017-06-09T03:05:10.066Z,0
2017-06-09T03:05:42.318Z,0
2017-06-09T03:06:14.592Z,0
2017-06-09T03:06:46.847Z,0
2017-06-09T03:07:20.183Z,0
2017-06-09T03:07:52.457Z,0
2017-06-09T03:08:25.561Z,0
2017-06-09T03:08:57.807Z,0
2017-06-09T03:09:30.065Z,0
2017-06-09T03:10:02.302Z,0
2017-06-09T03:10:34.564Z,0
2017-06-09T03:11:06.840Z,0
2017-06-09T03:11:39.166Z,0
2017-06-09T03:12:11.423Z,0
2017-06-09T03:12:43.660Z,0
2017-06-09T03:13:15.908Z,0
2017-06-09T03:13:48.206Z,0
2017-06-09T03:14:20.470Z,0
2017-06-09T03:14:52.739Z,0
2017-06-09T03:15:25.013Z,0
2017-06-09T03:15:57.272Z,0
2017-06-09T03:16:30.507Z,0
2017-06-09T03:17:03.624Z,0
2017-06-09T03:17:35.875Z,0
2017-06-09T03:18:08.198Z,0
2017-06-09T03:18:40.471Z,0
2017-06-09T03:19:13.710Z,0
2017-06-09T03:19:45.995Z,0
2017-06-09T03:20:19.116Z,0
2017-06-09T03:20:51.406Z,0
2017-06-09T03:21:23.651Z,5
2017-06-09T03:21:56.677Z,5
2017-06-09T03:22:28.974Z,5
2017-06-09T03:23:01.263Z,5
2017-06-09T03:23:33.535Z,5
2017-06-09T03:24:05.819Z,5
2017-06-09T03:24:38.110Z,5
2017-06-09T03:25:10.405Z,5
2017-06-09T03:25:42.711Z,5
2017-06-09T03:26:15.035Z,5
2017-06-09T03:26:47.338Z,5
2017-06-09T03:27:19.619Z,5
2017-06-09T03:27:51.926Z,5
2017-06-09T03:28:24.224Z,5
2017-06-09T03:28:56.514Z,5
2017-06-09T03:29:28.814Z,5
2017-06-09T03:30:01.103Z,5
2017-06-09T03:30:33.384Z,5
2017-06-09T03:31:05.703Z,5
2017-06-09T03:31:37.987Z,5
2017-06-09T03:32:10.271Z,5
2017-06-09T03:32:42.576Z,5
2017-06-09T03:33:14.828Z,5
2017-06-09T03:33:47.093Z,5
2017-06-09T03:34:19.345Z,5
2017-06-09T03:34:51.639Z,5
2017-06-09T03:35:23.890Z,5
2017-06-09T03:35:56.147Z,5
2017-06-09T03:36:28.395Z,5
2017-06-09T03:37:00.666Z,5
2017-06-09T03:37:32.936Z,10
2017-06-09T03:38:05.193Z,10
2017-06-09T03:38:37.458Z,10
2017-06-09T03:39:10.708Z,10
2017-06-09T03:39:42.968Z,10
2017-06-09T03:40:15.216Z,10
2017-06-09T03:40:47.467Z,10
2017-06-09T03:41:19.716Z,10
2017-06-09T03:41:51.980Z,10
2017-06-09T03:42:24.253Z,10
2017-06-09T03:42:56.531Z,10
2017-06-09T03:43:28.834Z,10
2017-06-09T03:44:01.137Z,10
2017-06-09T03:44:33.445Z,10
2017-06-09T03:45:05.722Z,10
2017-06-09T03:45:37.999Z,10
2017-06-09T03:46:10.299Z,10
2017-06-09T03:46:42.592Z,10
2017-06-09T03:47:14.882Z,10
2017-06-09T03:47:47.165Z,10
2017-06-09T03:48:19.462Z,10
2017-06-09T03:48:51.775Z,10
2017-06-09T03:49:24.079Z,10
2017-06-09T03:49:56.367Z,10
2017-06-09T03:50:28.661Z,10
2017-06-09T03:51:00.940Z,10
2017-06-09T03:51:33.236Z,10
2017-06-09T03:52:05.535Z,15
2017-06-09T03:52:37.811Z,15
2017-06-09T03:53:10.072Z,15
2017-06-09T03:53:42.328Z,15
2017-06-09T03:54:14.575Z,15
2017-06-09T03:54:46.808Z,15
2017-06-09T03:55:19.082Z,15
2017-06-09T03:55:51.404Z,15
2017-06-09T03:56:23.690Z,15
2017-06-09T03:56:55.929Z,15
2017-06-09T03:57:28.193Z,15
2017-06-09T03:58:00.470Z,15
2017-06-09T03:58:32.717Z,15
2017-06-09T03:59:05.762Z,15
2017-06-09T03:59:38.674Z,15
2017-06-09T04:00:10.925Z,15
2017-06-09T04:00:43.175Z,15
2017-06-09T04:01:15.430Z,15
2017-06-09T04:01:47.789Z,15
2017-06-09T04:02:20.043Z,15
2017-06-09T04:02:52.288Z,15
2017-06-09T04:03:24.569Z,15
2017-06-09T04:03:56.841Z,15
2017-06-09T04:04:29.082Z,15
2017-06-09T04:05:01.333Z,15
2017-06-09T04:05:34.222Z,15
2017-06-09T04:06:06.490Z,15
2017-06-09T04:06:38.768Z,15
2017-06-09T04:07:11.592Z,15
2017-06-09T04:07:43.907Z,15
2017-06-09T04:08:16.177Z,15
2017-06-09T04:08:48.414Z,15
2017-06-09T04:09:20.677Z,15
2017-06-09T04:09:52.989Z,15
2017-06-09T04:10:25.260Z,15
2017-06-09T04:10:57.536Z,20
2017-06-09T04:11:29.800Z,20
2017-06-09T04:12:02.069Z,20
2017-06-09T04:12:34.304Z,20
2017-06-09T04:13:06.603Z,20
2017-06-09T04:13:38.883Z,20
2017-06-09T04:14:11.180Z,20
2017-06-09T04:14:43.440Z,20
2017-06-09T04:15:15.695Z,20
2017-06-09T04:15:47.945Z,20
2017-06-09T04:16:20.201Z,20
2017-06-09T04:16:52.468Z,20
2017-06-09T04:17:24.719Z,20
2017-06-09T04:17:57.018Z,20
2017-06-09T04:18:29.260Z,20
2017-06-09T04:19:01.517Z,20
2017-06-09T04:19:34.738Z,20
2017-06-09T04:20:07.711Z,20
2017-06-09T04:20:40.056Z,25
2017-06-09T04:21:13.200Z,25
2017-06-09T04:21:45.463Z,25
2017-06-09T04:22:18.271Z,25
2017-06-09T04:22:50.545Z,25
2017-06-09T04:23:22.795Z,25
2017-06-09T04:23:55.552Z,25
2017-06-09T04:24:27.798Z,25
2017-06-09T04:25:00.714Z,25
2017-06-09T04:25:32.987Z,25
2017-06-09T04:26:05.289Z,25
2017-06-09T04:26:38.208Z,25
2017-06-09T04:27:10.466Z,30
2017-06-09T04:27:42.720Z,30
2017-06-09T04:28:14.972Z,30
2017-06-09T04:28:47.262Z,30
2017-06-09T04:29:19.529Z,30
2017-06-09T04:29:52.691Z,30
2017-06-09T04:30:24.942Z,30
2017-06-09T04:30:57.183Z,30
2017-06-09T04:31:29.636Z,30
2017-06-09T04:32:01.902Z,30
2017-06-09T04:32:35.661Z,35
2017-06-09T04:33:07.957Z,35
2017-06-09T04:33:40.202Z,35
2017-06-09T04:34:12.538Z,35
2017-06-09T04:34:44.811Z,40
2017-06-09T04:35:17.064Z,40
2017-06-09T04:35:49.313Z,45
2017-06-09T04:36:21.574Z,45
2017-06-09T04:36:53.839Z,45
2017-06-09T04:37:26.722Z,45
2017-06-09T04:37:59.776Z,50
2017-06-09T04:38:32.050Z,50
2017-06-09T04:39:05.258Z,50
2017-06-09T04:39:37.567Z,55
2017-06-09T04:40:10.214Z,55
2017-06-09T04:40:42.463Z,60
2017-06-09T04:41:14.739Z,60
2017-06-09T04:41:46.996Z,65
2017-06-09T04:42:19.289Z,70
2017-06-09T04:42:51.583Z,70
2017-06-09T04:43:23.840Z,70
2017-06-09T04:43:56.081Z,70
2017-06-09T04:44:28.332Z,70
2017-06-09T04:45:01.097Z,70
2017-06-09T04:45:33.388Z,70
2017-06-09T04:46:05.671Z,65
2017-06-09T04:46:37.930Z,60
2017-06-09T04:47:10.187Z,60
2017-06-09T04:47:43.133Z,60
2017-06-09T04:48:15.418Z,60
2017-06-09T04:48:47.716Z,65
2017-06-09T04:49:19.955Z,75
2017-06-09T04:49:52.214Z,80
2017-06-09T04:50:25.131Z,80
2017-06-09T04:50:57.385Z,80
2017-06-09T04:51:29.629Z,80
2017-06-09T04:52:01.891Z,80
2017-06-09T04:52:34.259Z,80
2017-06-09T04:53:06.509Z,80
2017-06-09T04:53:38.757Z,80
2017-06-09T04:54:11.082Z,85
2017-06-09T04:54:44.094Z,80
2017-06-09T04:55:16.337Z,75
2017-06-09T04:55:48.592Z,65
2017-06-09T04:56:20.884Z,65
2017-06-09T04:56:53.794Z,60
2017-06-09T04:57:26.043Z,60
2017-06-09T04:57:58.298Z,65
2017-06-09T04:58:30.538Z,70
2017-06-09T04:59:03.671Z,75
2017-06-09T04:59:36.065Z,80
2017-06-09T05:00:08.323Z,80
2017-06-09T05:00:40.582Z,85
2017-06-09T05:01:12.856Z,90
2017-06-09T05:01:45.643Z,90
2017-06-09T05:02:17.935Z,90
2017-06-09T05:02:50.212Z,90
2017-06-09T05:03:22.500Z,80
2017-06-09T05:03:54.784Z,70
2017-06-09T05:04:27.072Z,70
2017-06-09T05:04:59.353Z,70
2017-06-09T05:05:31.628Z,75
2017-06-09T05:06:03.917Z,80
2017-06-09T05:06:36.244Z,85
2017-06-09T05:07:08.545Z,90
2017-06-09T05:07:40.843Z,90
2017-06-09T05:08:13.161Z,95
2017-06-09T05:08:45.460Z,100
2017-06-09T05:09:17.752Z,105
2017-06-09T05:09:50.062Z,110
2017-06-09T05:10:22.371Z,110
2017-06-09T05:10:54.655Z,115
2017-06-09T05:11:26.944Z,115
2017-06-09T05:11:59.227Z,120
2017-06-09T05:12:31.522Z,120
2017-06-09T05:13:03.842Z,115
2017-06-09T05:13:36.094Z,120
2017-06-09T05:14:08.397Z,120
2017-06-09T05:14:40.647Z,120
2017-06-09T05:15:12.934Z,125
2017-06-09T05:15:45.226Z,125
2017-06-09T05:16:17.520Z,125
2017-06-09T05:16:49.813Z,125
2017-06-09T05:17:22.133Z,125
2017-06-09T05:17:54.413Z,110
2017-06-09T05:18:26.706Z,125
2017-06-09T05:18:58.995Z,125
2017-06-09T05:19:31.301Z,130
2017-06-09T05:20:03.577Z,125
2017-06-09T05:20:35.869Z,125
2017-06-09T05:21:08.170Z,120
2017-06-09T05:21:40.464Z,125
2017-06-09T05:22:12.756Z,130
2017-06-09T05:22:45.041Z,125
2017-06-09T05:23:17.342Z,130
2017-06-09T05:23:49.632Z,125
2017-06-09T05:24:21.946Z,125
2017-06-09T05:24:54.238Z,125
2017-06-09T05:25:26.521Z,125
2017-06-09T05:25:58.796Z,125
2017-06-09T05:26:31.078Z,120
2017-06-09T05:27:03.361Z,105
2017-06-09T05:27:35.654Z,100
2017-06-09T05:28:07.965Z,95
2017-06-09T05:28:40.249Z,105
2017-06-09T05:29:12.533Z,95
2017-06-09T05:29:44.859Z,95
2017-06-09T05:30:17.165Z,90
2017-06-09T05:30:49.457Z,75
2017-06-09T05:31:21.745Z,75
2017-06-09T05:31:54.021Z,70
2017-06-09T05:32:26.309Z,70
2017-06-09T05:32:58.599Z,65
2017-06-09T05:33:30.879Z,65
2017-06-09T05:34:03.154Z,75
2017-06-09T05:34:35.435Z,70
2017-06-09T05:35:07.728Z,90
2017-06-09T05:35:40.016Z,110
2017-06-09T05:36:12.322Z,120
2017-06-09T05:36:44.607Z,125
2017-06-09T05:37:16.901Z,130
2017-06-09T05:37:49.202Z,120
2017-06-09T05:38:21.508Z,120
2017-06-09T05:38:53.798Z,120
2017-06-09T05:39:26.086Z,115
2017-06-09T05:39:58.365Z,105
2017-06-09T05:40:30.661Z,95
2017-06-09T05:41:02.949Z,90
2017-06-09T05:41:35.249Z,95
2017-06-09T05:42:07.537Z,125
2017-06-09T05:42:39.811Z,120
2017-06-09T05:43:12.080Z,130
2017-06-09T05:43:44.378Z,125
2017-06-09T05:44:16.662Z,115
2017-06-09T05:44:48.955Z,105
2017-06-09T05:45:21.226Z,130
2017-06-09T05:45:53.519Z,105
2017-06-09T05:46:25.804Z,115
2017-06-09T05:46:58.094Z,100
2017-06-09T05:47:30.389Z,85
2017-06-09T05:48:02.662Z,85
2017-06-09T05:48:34.954Z,90
2017-06-09T05:49:07.237Z,90
2017-06-09T05:49:39.524Z,90
2017-06-09T05:50:12.742Z,90
2017-06-09T05:50:45.029Z,85
2017-06-09T05:51:17.312Z,85
2017-06-09T05:51:49.592Z,90
2017-06-09T05:52:21.930Z,90
2017-06-09T05:52:54.229Z,90
2017-06-09T05:53:26.496Z,90
2017-06-09T05:53:58.784Z,100
2017-06-09T05:54:31.065Z,100
2017-06-09T05:56:23.267Z,100
2017-06-09T05:56:55.583Z,100
2017-06-09T05:57:27.849Z,100
2017-06-09T05:58:00.134Z,100
2017-06-09T05:58:32.430Z,105
2017-06-09T05:59:04.730Z,105
2017-06-09T05:59:37.024Z,125
2017-06-09T06:00:09.333Z,130
2017-06-09T06:00:41.607Z,130
2017-06-09T06:01:13.877Z,140
2017-06-09T06:01:46.139Z,140
2017-06-09T06:02:18.411Z,140
2017-06-09T06:02:50.702Z,145
2017-06-09T06:03:23.138Z,145
2017-06-09T06:03:55.471Z,140
2017-06-09T06:04:27.765Z,135
2017-06-09T06:05:00.048Z,130
2017-06-09T06:05:32.357Z,130
2017-06-09T06:06:04.641Z,135
2017-06-09T06:06:36.934Z,125
2017-06-09T06:07:09.263Z,135
2017-06-09T06:07:41.544Z,130
2017-06-09T06:08:13.876Z,120
2017-06-09T06:08:46.189Z,115
2017-06-09T06:09:18.480Z,105
2017-06-09T06:09:50.829Z,110
2017-06-09T06:10:23.110Z,100
2017-06-09T06:10:55.405Z,100
2017-06-09T06:11:27.714Z,95
2017-06-09T06:12:00.008Z,90
2017-06-09T06:12:32.285Z,85
2017-06-09T06:13:04.544Z,80
2017-06-09T06:13:36.777Z,80
2017-06-09T06:14:09.036Z,80
2017-06-09T06:14:41.321Z,75
2017-06-09T06:15:13.585Z,75
2017-06-09T06:15:48.298Z,70
2017-06-09T06:16:20.605Z,70
2017-06-09T06:16:53.805Z,70
2017-06-09T06:17:26.091Z,70
2017-06-09T06:17:59.317Z,70
2017-06-09T06:18:31.660Z,70
2017-06-09T06:19:03.933Z,70
2017-06-09T06:19:37.832Z,70
2017-06-09T06:20:10.764Z,70
2017-06-09T06:20:43.025Z,70
2017-06-09T06:21:15.275Z,70
2017-06-09T06:21:47.517Z,70
2017-06-09T06:22:19.897Z,75
2017-06-09T06:22:52.208Z,75
2017-06-09T06:23:24.487Z,75
2017-06-09T06:23:56.789Z,75
2017-06-09T06:24:29.117Z,75
2017-06-09T06:25:01.417Z,75
2017-06-09T06:25:33.721Z,75
2017-06-09T06:26:06.026Z,75
2017-06-09T06:26:38.299Z,75
2017-06-09T06:27:10.568Z,75
2017-06-09T06:27:42.872Z,75
2017-06-09T06:28:15.157Z,75
2017-06-09T06:28:47.443Z,75
2017-06-09T06:29:19.735Z,80
2017-06-09T06:29:52.039Z,80
2017-06-09T06:30:24.349Z,80
2017-06-09T06:30:56.646Z,80
2017-06-09T06:31:29.809Z,80
2017-06-09T06:32:02.099Z,80
2017-06-09T06:32:34.384Z,80
2017-06-09T06:33:06.660Z,80
2017-06-09T06:33:38.939Z,80
2017-06-09T06:34:11.231Z,80
2017-06-09T06:34:43.532Z,80
2017-06-09T06:35:15.817Z,80
2017-06-09T06:35:48.104Z,80
2017-06-09T06:36:20.391Z,80
2017-06-09T06:36:52.684Z,80
2017-06-09T06:37:24.990Z,90
2017-06-09T06:37:57.267Z,85
2017-06-09T06:38:29.834Z,80
2017-06-09T06:39:02.115Z,80
2017-06-09T06:39:34.406Z,80
2017-06-09T06:41:26.437Z,80
2017-06-09T06:42:06.369Z,80
2017-06-09T06:42:38.636Z,80
2017-06-09T06:43:10.896Z,80
2017-06-09T06:43:43.162Z,80
2017-06-09T06:44:16.282Z,80
2017-06-09T06:44:48.542Z,85
2017-06-09T06:45:21.658Z,85
2017-06-09T06:45:54.784Z,85
2017-06-09T06:46:27.058Z,90
2017-06-09T06:46:59.337Z,90
2017-06-09T06:47:31.587Z,90
2017-06-09T06:48:03.837Z,95
2017-06-09T06:48:36.093Z,95
2017-06-09T06:49:08.351Z,100
2017-06-09T06:49:40.619Z,100
2017-06-09T06:50:12.882Z,100
2017-06-09T06:50:45.163Z,100
2017-06-09T06:51:17.421Z,105
2017-06-09T06:51:49.674Z,105
2017-06-09T06:52:21.913Z,105
2017-06-09T06:52:54.181Z,110
2017-06-09T06:53:26.476Z,120
2017-06-09T06:53:58.774Z,150
2017-06-09T06:54:31.065Z,140
2017-06-09T06:55:03.344Z,145
2017-06-09T06:55:35.676Z,150
2017-06-09T06:56:07.986Z,150
2017-06-09T06:56:40.288Z,140
2017-06-09T06:57:12.590Z,140
2017-06-09T06:57:44.876Z,155
2017-06-09T06:58:17.164Z,155
2017-06-09T06:58:49.453Z,155
2017-06-09T06:59:21.757Z,150
2017-06-09T06:59:54.145Z,145
2017-06-09T07:00:26.453Z,140
2017-06-09T07:00:58.750Z,120
2017-06-09T07:01:31.042Z,120
2017-06-09T07:02:03.358Z,110
2017-06-09T07:02:35.397Z,105
2017-06-09T07:03:07.851Z,110
2017-06-09T07:03:40.167Z,100
2017-06-09T07:04:12.184Z,100
2017-06-09T07:04:44.836Z,95
2017-06-09T07:06:36.655Z,80
2017-06-09T07:07:08.992Z,75
2017-06-09T07:09:00.803Z,75
2017-06-09T07:09:33.109Z,75
2017-06-09T07:10:05.385Z,75
2017-06-09T07:10:38.112Z,75
2017-06-09T07:11:11.226Z,75
2017-06-09T07:11:43.542Z,75
2017-06-09T07:12:15.813Z,75
2017-06-09T07:12:48.155Z,75
2017-06-09T07:13:20.438Z,75
2017-06-09T07:13:52.710Z,75
2017-06-09T07:14:25.011Z,80
2017-06-09T07:14:57.278Z,85
2017-06-09T07:16:48.846Z,105
2017-06-09T07:17:21.145Z,120
2017-06-09T07:17:53.442Z,130
2017-06-09T07:18:25.750Z,130
2017-06-09T07:18:58.076Z,145
2017-06-09T07:20:49.772Z,160
2017-06-09T07:21:22.653Z,160
2017-06-09T07:21:54.928Z,165
2017-06-09T07:22:27.230Z,170
2017-06-09T07:23:00.308Z,185
2017-06-09T07:23:32.581Z,200
2017-06-09T07:24:04.906Z,205
2017-06-09T07:24:37.256Z,210
2017-06-09T07:25:09.570Z,215
2017-06-09T07:25:41.910Z,215
2017-06-09T07:26:14.836Z,210
2017-06-09T07:26:47.124Z,215
2017-06-09T07:27:19.454Z,215
2017-06-09T07:27:51.879Z,215
2017-06-09T07:28:24.147Z,215
2017-06-09T07:28:56.483Z,205
2017-06-09T07:29:28.874Z,205
2017-06-09T07:30:01.148Z,200
2017-06-09T07:30:33.396Z,200
2017-06-09T07:31:05.691Z,190
2017-06-09T07:31:38.044Z,185
2017-06-09T07:32:10.295Z,180
2017-06-09T07:32:42.560Z,180
2017-06-09T07:33:14.818Z,180
2017-06-09T07:33:48.364Z,175
2017-06-09T07:34:20.623Z,170
2017-06-09T07:34:53.661Z,165
2017-06-09T07:35:25.992Z,150
2017-06-09T07:35:58.259Z,140
2017-06-09T07:36:30.543Z,130
2017-06-09T07:37:02.808Z,125
2017-06-09T07:37:35.055Z,120
2017-06-09T07:38:07.318Z,120
2017-06-09T07:38:39.580Z,120
2017-06-09T07:39:11.853Z,115
2017-06-09T07:39:44.819Z,110
2017-06-09T07:40:17.091Z,110
2017-06-09T07:40:49.347Z,105
2017-06-09T07:41:22.313Z,105
2017-06-09T07:41:54.580Z,100
2017-06-09T07:42:26.857Z,105
2017-06-09T07:42:59.122Z,105
2017-06-09T07:43:31.416Z,105
2017-06-09T07:44:03.661Z,110
2017-06-09T07:44:35.910Z,110
2017-06-09T07:45:08.183Z,115
2017-06-09T07:45:40.432Z,115
2017-06-09T07:46:12.703Z,120
2017-06-09T07:46:45.059Z,120
2017-06-09T07:47:17.317Z,120
2017-06-09T07:47:49.556Z,120
2017-06-09T07:48:21.833Z,125
2017-06-09T07:48:54.096Z,125
2017-06-09T07:49:27.221Z,125
2017-06-09T07:49:59.481Z,125
2017-06-09T07:50:32.388Z,125
2017-06-09T07:51:05.389Z,130
2017-06-09T07:51:37.758Z,130
2017-06-09T07:52:10.033Z,130
2017-06-09T07:52:42.295Z,130
2017-06-09T07:53:14.552Z,130
2017-06-09T07:53:46.822Z,130